Time;durP1;ratioP1;P1;durP2;ratioP2;P2;SDS_P1;SDS_P2;PMS_P1;PMS_P2;Temp;Humidity;BMP_temperature;BMP_pressure;BME280_temperature;BME280_humidity;BME280_pressure;Samples;Min_cycle;Max_cycle;Signal;HPM_P1;HPM_P2
2022/09/05 00:00:03;;;;;;;1999.90;999.90;;;;;;;13.61;79.75;99640.38;8291016;28;20121;-79
2022/09/05 00:04:26;;;;;;;1999.90;999.90;;;;;;;13.59;80.35;99642.13;8275139;28;20136;-78
2022/09/05 00:08:55;;;;;;;1999.90;999.90;;;;;;;13.51;79.72;99644.84;8291544;28;20069;-77
2022/09/05 00:13:11;;;;;;;1999.90;999.90;;;;;;;13.44;80.47;99647.53;8291717;28;20042;-78
2022/09/05 00:17:22;;;;;;;1999.90;999.90;;;;;;;13.40;81.02;99644.09;8294867;28;20650;-78
2022/09/05 00:21:40;;;;;;;1999.90;999.90;;;;;;;13.37;80.88;99640.69;8294335;28;20042;-78
2022/09/05 00:26:25;;;;;;;1999.90;999.90;;;;;;;13.35;81.17;99648.53;8291614;28;20065;-78
2022/09/05 00:30:40;;;;;;;1999.90;999.90;;;;;;;13.28;80.87;99641.63;8275151;28;21921;-77
2022/09/05 00:35:20;;;;;;;1999.90;999.90;;;;;;;13.26;81.38;99641.66;8242261;28;20055;-78
2022/09/05 00:39:53;;;;;;;1999.90;999.90;;;;;;;13.22;80.52;99636.50;8261810;28;20089;-78
2022/09/05 00:44:19;;;;;;;1999.90;999.90;;;;;;;13.17;81.52;99639.13;8241560;28;20133;-78
2022/09/05 00:48:55;;;;;;;1999.90;999.90;;;;;;;13.15;81.67;99642.63;8227592;28;20548;-78
2022/09/05 00:53:07;;;;;;;1999.90;999.90;;;;;;;13.09;81.27;99634.84;8258593;28;20136;-78
2022/09/05 00:57:12;;;;;;;;;;;;;;;13.08;81.20;99643.56;8250467;28;20046;-78
2022/09/05 01:01:42;;;;;;;1999.90;999.90;;;;;;;13.02;81.58;99637.53;8239005;28;19973;-78
2022/09/05 01:06:22;;;;;;;1999.90;999.90;;;;;;;12.97;81.42;99634.13;8242536;28;20042;-78
2022/09/05 01:10:32;;;;;;;1999.90;999.90;;;;;;;12.92;81.65;99635.03;8255429;28;20221;-78
2022/09/05 01:14:47;;;;;;;1999.90;999.90;;;;;;;12.74;81.52;99630.00;8237335;28;20145;-78
2022/09/05 01:19:21;;;;;;;1999.90;999.90;;;;;;;12.73;82.63;99626.53;8255556;28;20767;-78
2022/09/05 01:23:31;;;;;;;1999.90;999.90;;;;;;;12.80;83.80;99627.34;8233331;28;20042;-78
2022/09/05 01:27:36;;;;;;;1999.90;999.90;;;;;;;12.80;83.20;99622.16;8247049;28;20046;-77
2022/09/05 01:32:09;;;;;;;1999.90;999.90;;;;;;;12.70;82.90;99629.16;8208197;28;20047;-78
2022/09/05 01:36:17;;;;;;;1999.90;999.90;;;;;;;12.63;83.73;99633.59;8234231;28;20502;-78
2022/09/05 01:40:35;;;;;;;1999.90;999.90;;;;;;;12.67;83.64;99639.63;8237188;28;20046;-78
2022/09/05 01:44:48;;;;;;;1999.90;999.90;;;;;;;12.67;83.59;99624.84;8230819;28;20142;-77
2022/09/05 01:49:15;;;;;;;1999.90;999.90;;;;;;;12.66;83.39;99636.16;8257348;28;20423;-78
2022/09/05 01:53:31;;;;;;;1999.90;999.90;;;;;;;12.62;83.46;99629.25;8251697;28;20691;-78
2022/09/05 01:57:49;;;;;;;1999.90;999.90;;;;;;;12.64;83.62;99632.69;8252900;28;20132;-78
2022/09/05 02:02:11;;;;;;;1999.90;999.90;;;;;;;12.64;83.51;99624.88;8256992;28;20425;-79
2022/09/05 02:07:00;;;;;;;1999.90;999.90;;;;;;;12.60;83.07;99617.97;8266296;28;20061;-79
2022/09/05 02:11:43;;;;;;;1999.90;999.90;;;;;;;12.53;82.90;99618.91;8142795;29;20937;-79
2022/09/05 02:15:51;;;;;;;1999.90;999.90;;;;;;;12.45;83.21;99620.72;8215855;28;20149;-79
2022/09/05 02:20:24;;;;;;;1999.90;999.90;;;;;;;12.39;84.07;99629.44;8247798;28;20074;-79
2022/09/05 02:24:37;;;;;;;1999.90;999.90;;;;;;;12.32;84.24;99629.50;8241825;28;20066;-80
2022/09/05 02:28:50;;;;;;;1999.90;999.90;;;;;;;12.22;84.56;99618.31;8234121;28;20452;-79
2022/09/05 02:33:20;;;;;;;1999.90;999.90;;;;;;;12.23;85.31;99619.16;8242115;28;20069;-80
2022/09/05 02:37:53;;;;;;;1999.90;999.90;;;;;;;12.28;85.56;99622.59;8228472;28;20137;-80
2022/09/05 02:42:22;;;;;;;1999.90;999.90;;;;;;;12.22;85.50;99617.44;8259683;28;20043;-80
2022/09/05 02:47:17;;;;;;;1999.90;999.90;;;;;;;12.24;85.71;99626.09;8259889;28;20050;-79
2022/09/05 02:51:33;;;;;;;1999.90;999.90;;;;;;;12.26;85.69;99624.34;8253774;28;20070;-79
2022/09/05 02:56:16;;;;;;;1999.90;999.90;;;;;;;12.27;85.11;99628.69;8258751;28;20065;-80
2022/09/05 03:00:45;;;;;;;1999.90;999.90;;;;;;;12.29;85.30;99614.75;8252997;28;20054;-80
2022/09/05 03:05:04;;;;;;;1999.90;999.90;;;;;;;12.29;85.15;99614.75;8241896;28;20046;-80
2022/09/05 03:09:20;;;;;;;1999.90;999.90;;;;;;;12.24;84.71;99613.94;8233996;28;20096;-80
2022/09/05 03:13:40;;;;;;;1999.90;999.90;;;;;;;12.26;84.64;99620.00;8235476;28;20049;-80
2022/09/05 03:18:01;;;;;;;1999.90;999.90;;;;;;;12.22;84.92;99618.31;8258388;28;20137;-80
2022/09/05 03:22:59;;;;;;;1999.90;999.90;;;;;;;12.09;84.41;99627.94;8265754;28;20038;-80
2022/09/05 03:28:02;;;;;;;1999.90;999.90;;;;;;;12.03;84.96;99630.59;8258217;28;20084;-80
2022/09/05 03:32:21;;;;;;;1999.90;999.90;;;;;;;12.02;85.42;99626.22;8189065;28;20137;-80
2022/09/05 03:37:05;;;;;;;1999.90;999.90;;;;;;;12.09;86.01;99634.88;8274114;28;20050;-80
2022/09/05 03:41:28;;;;;;;1999.90;999.90;;;;;;;12.06;85.53;99632.28;8259742;28;20034;-80
2022/09/05 03:46:01;;;;;;;1999.90;999.90;;;;;;;12.04;85.87;99632.31;8251097;28;20061;-79
2022/09/05 03:50:26;;;;;;;1999.90;999.90;;;;;;;12.00;86.36;99633.19;8249805;28;20471;-79
2022/09/05 03:54:51;;;;;;;1999.90;999.90;;;;;;;11.97;85.15;99632.34;8276976;28;20054;-80
2022/09/05 03:59:31;;;;;;;1999.90;999.90;;;;;;;11.91;85.10;99630.66;8289558;28;20052;-79
2022/09/05 04:03:47;;;;;;;1999.90;999.90;;;;;;;11.90;85.99;99639.34;8285883;28;20530;-78
2022/09/05 04:08:20;;;;;;;1999.90;999.90;;;;;;;11.85;85.54;99630.69;8275274;28;20136;-78
2022/09/05 04:12:46;;;;;;;1999.90;999.90;;;;;;;11.88;86.15;99635.00;8300170;28;20076;-79
2022/09/05 04:17:06;;;;;;;1999.90;999.90;;;;;;;11.87;85.70;99631.53;8274132;28;20069;-78
2022/09/05 04:21:31;;;;;;;1999.90;999.90;;;;;;;11.84;85.12;99628.06;8249323;28;20121;-79
2022/09/05 04:25:51;;;;;;;1999.90;999.90;;;;;;;11.80;85.33;99627.22;8271201;28;20073;-78
2022/09/05 04:30:30;;;;;;;1999.90;999.90;;;;;;;11.77;85.58;99629.81;8254843;28;20602;-79
2022/09/05 04:35:18;;;;;;;1999.90;999.90;;;;;;;11.78;85.77;99631.56;8274633;28;20468;-78
2022/09/05 04:39:19;;;;;;;1999.90;999.90;;;;;;;11.75;85.52;99631.56;8236271;28;20101;-78
2022/09/05 04:43:46;;;;;;;1999.90;999.90;;;;;;;11.70;85.51;99623.81;8237959;28;20041;-79
2022/09/05 04:47:53;;;;;;;1999.90;999.90;;;;;;;11.67;86.06;99628.13;8240623;28;20095;-78
2022/09/05 04:52:30;;;;;;;1999.90;999.90;;;;;;;11.65;86.07;99632.47;8235228;28;20148;-78
2022/09/05 04:56:40;;;;;;;1999.90;999.90;;;;;;;11.62;86.08;99635.97;8249975;28;20114;-79
2022/09/05 05:01:01;;;;;;;1999.90;999.90;;;;;;;11.60;85.89;99637.72;8255697;28;20050;-77
2022/09/05 05:05:47;;;;;;;1999.90;999.90;;;;;;;11.53;85.85;99637.75;8259917;28;20050;-79
2022/09/05 05:10:26;;;;;;;1999.90;999.90;;;;;;;11.47;86.40;99643.81;8239504;28;20060;-79
2022/09/05 05:14:56;;;;;;;1999.90;999.90;;;;;;;11.49;87.01;99648.19;8244869;28;20456;-77
2022/09/05 05:19:25;;;;;;;1999.90;999.90;;;;;;;11.51;87.17;99655.97;8233797;28;20057;-77
2022/09/05 05:23:41;;;;;;;1999.90;999.90;;;;;;;11.47;87.17;99669.81;8241093;28;20580;-78
2022/09/05 05:28:09;;;;;;;1999.90;999.90;;;;;;;11.42;87.34;99663.78;8238342;28;20133;-78
2022/09/05 05:32:53;;;;;;;1999.90;999.90;;;;;;;11.49;87.57;99686.31;8242622;28;20042;-78
2022/09/05 05:37:07;;;;;;;1999.90;999.90;;;;;;;11.59;87.68;99679.31;8285515;28;20089;-77
2022/09/05 05:41:42;;;;;;;1999.90;999.90;;;;;;;11.72;88.14;99684.47;8273739;28;20060;-77
2022/09/05 05:45:44;;;;;;;1999.90;999.90;;;;;;;11.88;87.84;99694.84;8289585;28;20052;-77
2022/09/05 05:49:57;;;;;;;1999.90;999.90;;;;;;;12.02;87.32;99696.50;8282288;28;20398;-77
2022/09/05 05:54:24;;;;;;;1999.90;999.90;;;;;;;12.20;86.95;99705.06;8264098;28;20048;-77
2022/09/05 05:58:32;;;;;;;1999.90;999.90;;;;;;;12.42;86.40;99703.22;8287962;28;20069;-78
2022/09/05 06:02:40;;;;;;;1999.90;999.90;;;;;;;12.66;86.38;99698.69;8290306;28;20049;-78
2022/09/05 06:07:21;;;;;;;1999.90;999.90;;;;;;;13.30;84.67;99702.50;8273432;28;20065;-77
2022/09/05 06:11:25;;;;;;;1999.90;999.90;;;;;;;13.80;81.26;99696.66;8272747;28;20046;-78
2022/09/05 06:16:08;;;;;;;1999.90;999.90;;;;;;;14.29;79.30;99698.63;8293804;28;20051;-78
2022/09/05 06:20:12;;;;;;;;;;;;;;;14.70;77.45;99692.78;8264322;28;20049;-78
2022/09/05 06:25:14;;;;;;;1999.90;999.90;;;;;;;15.16;74.95;99699.00;8286820;28;19931;-78
2022/09/05 06:29:35;;;;;;;1999.90;999.90;;;;;;;15.45;73.75;99701.94;8275167;28;20041;-77
2022/09/05 06:34:02;;;;;;;1999.90;999.90;;;;;;;15.79;72.95;99702.13;8270794;28;20049;-79
2022/09/05 06:38:20;;;;;;;1999.90;999.90;;;;;;;16.41;71.50;99699.06;8298305;28;20515;-78
2022/09/05 06:43:17;;;;;;;1999.90;999.90;;;;;;;16.76;69.97;99709.59;8299328;28;20080;-79
2022/09/05 06:47:19;;;;;;;1999.90;999.90;;;;;;;17.15;69.96;99715.59;8236455;28;20559;-78
2022/09/05 06:51:36;;;;;;;1999.90;999.90;;;;;;;17.58;68.48;99716.19;8242965;28;20046;-78
2022/09/05 06:56:14;;;;;;;1999.90;999.90;;;;;;;18.02;66.96;99717.59;8257031;28;20658;-78
2022/09/05 07:00:37;;;;;;;1999.90;999.90;;;;;;;18.49;65.38;99721.44;8279066;28;20165;-78
2022/09/05 07:05:01;;;;;;;1999.90;999.90;;;;;;;18.92;64.32;99710.41;8272816;28;20064;-78
2022/09/05 07:10:03;;;;;;;1999.90;999.90;;;;;;;19.31;62.73;99717.84;8272713;28;20068;-78
2022/09/05 07:14:47;;;;;;;1999.90;999.90;;;;;;;19.81;62.03;99715.22;8269875;28;20086;-78
2022/09/05 07:19:13;;;;;;;1999.90;999.90;;;;;;;20.27;60.59;99718.72;8291805;28;20046;-77
2022/09/05 07:23:39;;;;;;;1999.90;999.90;;;;;;;20.78;59.71;99711.41;8279906;28;20037;-78
2022/09/05 07:28:11;;;;;;;1999.90;999.90;;;;;;;21.17;58.69;99705.38;8276096;28;20065;-78
2022/09/05 07:32:39;;;;;;;1999.90;999.90;;;;;;;21.63;57.67;99716.66;8265672;28;20097;-77
2022/09/05 07:36:45;;;;;;;1999.90;999.90;;;;;;;22.02;55.65;99727.19;8274114;28;20145;-77
2022/09/05 07:40:52;;;;;;;1999.90;999.90;;;;;;;22.39;55.02;99729.03;8291420;28;20135;-79
2022/09/05 07:45:13;;;;;;;1999.90;999.90;;;;;;;22.69;53.45;99736.44;8273591;28;20116;-79
2022/09/05 07:49:22;;;;;;;1999.90;999.90;;;;;;;23.03;53.03;99740.97;8267044;28;20065;-79
2022/09/05 07:53:42;;;;;;;1999.90;999.90;;;;;;;23.40;52.29;99734.66;8272324;28;20087;-79
2022/09/05 07:58:07;;;;;;;1999.90;999.90;;;;;;;23.77;52.09;99739.78;8270953;28;20049;-78
2022/09/05 08:02:11;;;;;;;1999.90;999.90;;;;;;;24.06;50.96;99722.31;8260694;28;20125;-76
2022/09/05 08:06:24;;;;;;;1999.90;999.90;;;;;;;24.37;50.03;99725.94;8253155;28;20046;-78
2022/09/05 08:11:04;;;;;;;1999.90;999.90;;;;;;;24.57;48.58;99733.66;8268417;28;20050;-78
2022/09/05 08:15:27;;;;;;;1999.90;999.90;;;;;;;24.82;47.71;99740.25;8289553;28;20053;-78
2022/09/05 08:20:18;;;;;;;1999.90;999.90;;;;;;;24.78;47.19;99742.22;8265087;28;20061;-79
2022/09/05 08:24:44;;;;;;;1999.90;999.90;;;;;;;25.13;46.89;99742.84;8292654;28;20054;-78
2022/09/05 08:29:05;;;;;;;1999.90;999.90;;;;;;;25.52;46.98;99741.44;8279699;28;20038;-78
2022/09/05 08:33:31;;;;;;;1999.90;999.90;;;;;;;25.99;46.32;99729.69;8277080;28;20100;-78
2022/09/05 08:37:34;;;;;;;1999.90;999.90;;;;;;;26.18;44.67;99727.59;8273342;28;20045;-78
2022/09/05 08:41:47;;;;;;;1999.90;999.90;;;;;;;26.43;44.34;99725.13;8275231;28;20046;-78
2022/09/05 08:46:22;;;;;;;1999.90;999.90;;;;;;;26.74;43.54;99723.09;8260132;28;20608;-80
2022/09/05 08:50:49;;;;;;;1999.90;999.90;;;;;;;26.87;42.39;99713.34;8290267;28;20056;-78
2022/09/05 08:55:26;;;;;;;1999.90;999.90;;;;;;;27.19;42.26;99711.22;8288332;28;20153;-78
2022/09/05 08:59:43;;;;;;;1999.90;999.90;;;;;;;27.14;41.67;99707.19;8284549;28;20056;-78
2022/09/05 09:04:33;;;;;;;1999.90;999.90;;;;;;;27.30;41.55;99699.84;8262572;28;20072;-78
2022/09/05 09:09:12;;;;;;;1999.90;999.90;;;;;;;27.48;40.13;99698.59;8254461;28;20069;-78
2022/09/05 09:13:51;;;;;;;1999.90;999.90;;;;;;;27.59;40.46;99680.00;8277243;28;20052;-79
2022/09/05 09:18:32;;;;;;;1999.90;999.90;;;;;;;27.89;40.68;99668.16;8258241;28;20050;-78
2022/09/05 09:23:18;;;;;;;1999.90;999.90;;;;;;;28.01;39.78;99672.63;8295364;28;20425;-78
2022/09/05 09:27:59;;;;;;;1999.90;999.90;;;;;;;28.16;40.12;99676.84;8273486;28;20522;-78
2022/09/05 09:32:30;;;;;;;1999.90;999.90;;;;;;;28.32;38.40;99660.59;8278559;28;20069;-78
2022/09/05 09:37:07;;;;;;;1999.90;999.90;;;;;;;28.00;38.29;99660.22;8279846;28;20061;-78
2022/09/05 09:41:44;;;;;;;1999.90;999.90;;;;;;;28.21;39.74;99664.03;8220682;28;20383;-79
2022/09/05 09:46:29;;;;;;;1999.90;999.90;;;;;;;28.54;37.85;99658.03;8261601;28;20046;-78
2022/09/05 09:50:47;;;;;;;1999.90;999.90;;;;;;;28.55;36.51;99657.09;8264170;28;20694;-78
2022/09/05 09:55:30;;;;;;;1999.90;999.90;;;;;;;28.77;37.74;99658.16;8278177;28;20120;-78
2022/09/05 10:00:07;;;;;;;1999.90;999.90;;;;;;;28.94;37.87;99648.88;8266258;28;20042;-77
2022/09/05 10:05:07;;;;;;;1999.90;999.90;;;;;;;29.05;38.03;99646.22;8280642;28;20128;-77
2022/09/05 10:09:57;;;;;;;1999.90;999.90;;;;;;;29.01;36.40;99645.59;8282190;28;20544;-78
2022/09/05 10:14:45;;;;;;;1999.90;999.90;;;;;;;29.28;36.94;99642.66;8280821;28;20080;-77
2022/09/05 10:19:16;;;;;;;1999.90;999.90;;;;;;;29.38;35.50;99624.88;8275200;28;20056;-78
2022/09/05 10:23:46;;;;;;;1999.90;999.90;;;;;;;29.56;35.57;99625.28;8286532;28;20049;-78
2022/09/05 10:28:06;;;;;;;1999.90;999.90;;;;;;;29.84;36.17;99613.25;8266718;28;20053;-78
2022/09/05 10:32:36;;;;;;;1999.90;999.90;;;;;;;30.10;34.58;99612.97;8248360;28;20056;-79
2022/09/05 10:37:08;;;;;;;1999.90;999.90;;;;;;;30.23;33.54;99608.31;8259547;28;20532;-78
2022/09/05 10:41:27;;;;;;;1999.90;999.90;;;;;;;30.11;32.23;99604.81;8266439;28;20889;-77
2022/09/05 10:45:59;;;;;;;1999.90;999.90;;;;;;;30.28;32.93;99596.25;8253829;28;20045;-78
2022/09/05 10:50:27;;;;;;;1999.90;999.90;;;;;;;30.33;31.36;99603.88;8264392;28;20049;-77
2022/09/05 10:55:05;;;;;;;1999.90;999.90;;;;;;;30.45;31.40;99594.00;8285896;28;20366;-77
2022/09/05 10:59:43;;;;;;;1999.90;999.90;;;;;;;30.52;31.01;99577.28;8256124;28;20058;-78
2022/09/05 11:04:26;;;;;;;;;;;;;;;30.67;31.31;99577.81;8237001;28;20069;-78
2022/09/05 11:08:40;;;;;;;1999.90;999.90;;;;;;;30.72;30.61;99574.78;8263646;28;19925;-77
2022/09/05 11:13:10;;;;;;;1999.90;999.90;;;;;;;30.62;31.03;99564.81;8262447;28;20059;-77
2022/09/05 11:17:27;;;;;;;1999.90;999.90;;;;;;;30.83;31.05;99563.97;8241823;28;20621;-78
2022/09/05 11:21:41;;;;;;;1999.90;999.90;;;;;;;30.88;30.61;99549.22;8265820;28;20180;-77
2022/09/05 11:25:52;;;;;;;1999.90;999.90;;;;;;;30.84;30.27;99538.84;8257333;28;20224;-77
2022/09/05 11:30:05;;;;;;;1999.90;999.90;;;;;;;30.92;31.26;99531.00;8253263;28;20127;-77
2022/09/05 11:34:17;;;;;;;1999.90;999.90;;;;;;;31.09;30.89;99537.59;8296852;28;20120;-77
2022/09/05 11:38:51;;;;;;;1999.90;999.90;;;;;;;31.16;30.05;99533.38;8253719;28;20042;-77
2022/09/05 11:43:51;;;;;;;1999.90;999.90;;;;;;;31.42;30.31;99532.00;8286536;28;20052;-77
2022/09/05 11:48:48;;;;;;;1999.90;999.90;;;;;;;31.23;29.26;99535.41;8283406;28;20050;-78
2022/09/05 11:52:57;;;;;;;1999.90;999.90;;;;;;;31.49;29.03;99530.44;8272893;28;20535;-76
2022/09/05 11:57:24;;;;;;;1999.90;999.90;;;;;;;31.53;29.60;99529.19;8274243;28;20045;-77
2022/09/05 12:01:42;;;;;;;1999.90;999.90;;;;;;;31.71;28.73;99521.31;8266594;28;20056;-75
2022/09/05 12:06:07;;;;;;;1999.90;999.90;;;;;;;31.84;27.32;99515.72;8276586;28;20064;-77
2022/09/05 12:10:57;;;;;;;1999.90;999.90;;;;;;;31.96;27.58;99503.00;8297983;28;20080;-77
2022/09/05 12:15:44;;;;;;;1999.90;999.90;;;;;;;31.97;28.26;99510.94;8294475;28;20836;-77
2022/09/05 12:20:46;;;;;;;1999.90;999.90;;;;;;;32.14;28.62;99498.66;8246593;28;20049;-76
2022/09/05 12:25:06;;;;;;;1999.90;999.90;;;;;;;32.15;28.56;99487.75;8293141;28;20084;-77
2022/09/05 12:29:37;;;;;;;1999.90;999.90;;;;;;;31.93;27.54;99479.09;8274489;28;20045;-77
2022/09/05 12:34:00;;;;;;;1999.90;999.90;;;;;;;31.96;27.77;99487.75;8270633;28;20050;-77
2022/09/05 12:38:37;;;;;;;1999.90;999.90;;;;;;;32.10;26.85;99483.78;8259719;28;20058;-77
2022/09/05 12:43:23;;;;;;;1999.90;999.90;;;;;;;32.03;26.39;99483.50;8253828;28;20481;-77
2022/09/05 12:47:58;;;;;;;1999.90;999.90;;;;;;;32.07;27.40;99479.53;8290927;28;20045;-77
2022/09/05 12:52:04;;;;;;;1999.90;999.90;;;;;;;32.24;27.66;99463.69;8265228;28;20469;-77
2022/09/05 12:56:15;;;;;;;1999.90;999.90;;;;;;;32.35;26.84;99474.34;8292109;28;20049;-77
2022/09/05 13:00:45;;;;;;;1999.90;999.90;;;;;;;32.38;26.94;99471.34;8255265;28;20576;-77
2022/09/05 13:05:22;;;;;;;1999.90;999.90;;;;;;;32.43;27.24;99467.22;8293354;28;20046;-76
2022/09/05 13:09:47;;;;;;;1999.90;999.90;;;;;;;32.46;26.43;99474.16;8262926;28;20046;-77
2022/09/05 13:14:27;;;;;;;1999.90;999.90;;;;;;;32.53;27.01;99474.44;8274648;28;20129;-77
2022/09/05 13:19:06;;;;;;;1999.90;999.90;;;;;;;32.59;26.94;99461.25;8254010;28;20056;-77
2022/09/05 13:23:30;;;;;;;1999.90;999.90;;;;;;;32.64;26.57;99452.75;8291386;28;20042;-76
2022/09/05 13:27:39;;;;;;;1999.90;999.90;;;;;;;32.50;27.13;99447.81;8246289;28;20045;-77
2022/09/05 13:31:41;;;;;;;1999.90;999.90;;;;;;;32.52;26.49;99443.19;8245617;28;20077;-77
2022/09/05 13:36:05;;;;;;;1999.90;999.90;;;;;;;32.55;26.94;99437.50;8258415;28;20062;-76
2022/09/05 13:40:36;;;;;;;1999.90;999.90;;;;;;;32.52;26.22;99435.97;8255890;28;20145;-77
2022/09/05 13:44:45;;;;;;;1999.90;999.90;;;;;;;32.40;25.83;99416.44;8217302;28;20088;-76
2022/09/05 13:49:19;;;;;;;1999.90;999.90;;;;;;;32.42;26.21;99416.28;8269213;28;20486;-77
2022/09/05 13:53:50;;;;;;;1999.90;999.90;;;;;;;32.52;26.26;99416.28;8248477;28;20045;-77
2022/09/05 13:58:30;;;;;;;1999.90;999.90;;;;;;;32.49;25.68;99420.09;8266176;28;20051;-76
2022/09/05 14:03:07;;;;;;;1999.90;999.90;;;;;;;32.41;25.23;99412.75;8270123;28;20375;-77
2022/09/05 14:07:55;;;;;;;1999.90;999.90;;;;;;;32.59;24.92;99414.69;8233756;28;20057;-76
2022/09/05 14:12:28;;;;;;;1999.90;999.90;;;;;;;32.40;23.90;99403.00;8218763;28;20058;-77
2022/09/05 14:16:59;;;;;;;1999.90;999.90;;;;;;;32.34;26.04;99418.88;8238364;28;20062;-77
2022/09/05 14:21:27;;;;;;;1999.90;999.90;;;;;;;32.15;29.29;99419.72;8253013;28;20053;-76
2022/09/05 14:25:37;;;;;;;1999.90;999.90;;;;;;;32.04;30.60;99418.03;8260228;28;20912;-77
2022/09/05 14:29:51;;;;;;;1999.90;999.90;;;;;;;31.69;30.59;99415.88;8270220;28;20370;-76
2022/09/05 14:34:14;;;;;;;1999.90;999.90;;;;;;;31.66;30.81;99405.44;8271914;28;20145;-76
2022/09/05 14:39:26;;;;;;;1999.90;999.90;;;;;;;31.51;31.15;99406.81;8266050;28;20058;-76
2022/09/05 14:44:13;;;;;;;1999.90;999.90;;;;;;;31.20;31.75;99406.91;8253470;28;20044;-77
2022/09/05 14:48:49;;;;;;;1999.90;999.90;;;;;;;31.08;32.26;99396.41;8233229;28;20135;-78
2022/09/05 14:53:02;;;;;;;1999.90;999.90;;;;;;;31.24;32.64;99405.66;8268627;28;20639;-77
2022/09/05 14:57:29;;;;;;;1999.90;999.90;;;;;;;31.13;32.12;99395.00;8267611;28;20050;-77
2022/09/05 15:01:56;;;;;;;1999.90;999.90;;;;;;;30.82;32.87;99379.94;8288063;28;20065;-77
2022/09/05 15:06:28;;;;;;;1999.90;999.90;;;;;;;30.39;33.67;99378.31;8269590;28;20045;-77
2022/09/05 15:10:41;;;;;;;1999.90;999.90;;;;;;;29.97;34.45;99375.59;8282770;28;20053;-77
2022/09/05 15:15:03;;;;;;;1999.90;999.90;;;;;;;29.51;34.64;99375.94;8270256;28;20054;-77
2022/09/05 15:19:46;;;;;;;1999.90;999.90;;;;;;;29.14;35.54;99370.06;8253433;28;20038;-77
2022/09/05 15:24:15;;;;;;;1999.90;999.90;;;;;;;28.88;35.83;99370.31;8273611;28;20049;-78
2022/09/05 15:28:38;;;;;;;1999.90;999.90;;;;;;;28.72;36.94;99371.63;8259498;28;20125;-77
2022/09/05 15:32:41;;;;;;;1999.90;999.90;;;;;;;28.51;36.66;99375.03;8245157;28;20030;-77
2022/09/05 15:36:55;;;;;;;1999.90;999.90;;;;;;;28.30;37.07;99366.03;8268910;28;20475;-77
2022/09/05 15:41:16;;;;;;;1999.90;999.90;;;;;;;28.16;37.70;99364.41;8265262;28;20045;-77
2022/09/05 15:45:34;;;;;;;1999.90;999.90;;;;;;;28.08;38.56;99363.31;8271564;28;20588;-76
2022/09/05 15:49:48;;;;;;;1999.90;999.90;;;;;;;28.08;39.45;99353.47;8278976;28;20056;-77
2022/09/05 15:53:50;;;;;;;1999.90;999.90;;;;;;;28.32;38.40;99357.91;8281345;28;20370;-77
2022/09/05 15:57:58;;;;;;;1999.90;999.90;;;;;;;28.93;38.02;99350.41;8256275;28;20683;-77
2022/09/05 16:02:08;;;;;;;1999.90;999.90;;;;;;;29.45;36.33;99347.88;8292993;28;20045;-78
2022/09/05 16:06:12;;;;;;;1999.90;999.90;;;;;;;30.03;35.57;99344.78;8250305;28;20108;-77
2022/09/05 16:10:34;;;;;;;1999.90;999.90;;;;;;;30.34;33.53;99338.50;8246296;28;20061;-77
2022/09/05 16:15:04;;;;;;;1999.90;999.90;;;;;;;30.63;32.35;99329.75;8268364;28;20042;-77
2022/09/05 16:19:33;;;;;;;1999.90;999.90;;;;;;;30.88;32.73;99320.38;8250772;28;20170;-76
2022/09/05 16:24:01;;;;;;;1999.90;999.90;;;;;;;31.24;32.24;99309.06;8255507;28;20625;-77
2022/09/05 16:28:30;;;;;;;1999.90;999.90;;;;;;;32.08;30.74;99306.59;8289265;28;20065;-78
2022/09/05 16:32:39;;;;;;;1999.90;999.90;;;;;;;32.51;30.33;99301.69;8278116;28;20596;-77
2022/09/05 16:37:03;;;;;;;1999.90;999.90;;;;;;;31.27;31.18;99297.19;8288477;28;20085;-77
2022/09/05 16:41:33;;;;;;;1999.90;999.90;;;;;;;30.41;32.18;99295.09;8270462;28;20046;-77
2022/09/05 16:45:55;;;;;;;1999.90;999.90;;;;;;;29.70;32.62;99294.97;8268320;28;20064;-77
2022/09/05 16:50:18;;;;;;;1999.90;999.90;;;;;;;29.18;32.92;99284.09;8287402;28;20046;-77
2022/09/05 16:54:30;;;;;;;1999.90;999.90;;;;;;;28.81;33.03;99282.72;8271488;28;20070;-77
2022/09/05 16:58:38;;;;;;;1999.90;999.90;;;;;;;28.56;32.93;99291.88;8287976;28;20157;-77
2022/09/05 17:03:17;;;;;;;1999.90;999.90;;;;;;;28.29;33.77;99274.38;8289009;28;20859;-77
2022/09/05 17:07:41;;;;;;;1999.90;999.90;;;;;;;28.09;33.66;99279.56;8258847;28;20682;-77
2022/09/05 17:11:43;;;;;;;1999.90;999.90;;;;;;;27.91;34.03;99280.03;8271322;28;20053;-77
2022/09/05 17:16:03;;;;;;;1999.90;999.90;;;;;;;27.77;34.30;99282.06;8284767;28;20049;-77
2022/09/05 17:20:19;;;;;;;1999.90;999.90;;;;;;;27.59;34.64;99279.81;8258568;28;20835;-76
2022/09/05 17:24:21;;;;;;;1999.90;999.90;;;;;;;27.46;35.62;99291.50;8256126;28;20136;-77
2022/09/05 17:28:55;;;;;;;1999.90;999.90;;;;;;;27.18;37.27;99282.94;8256232;28;20104;-77
2022/09/05 17:33:23;;;;;;;1999.90;999.90;;;;;;;26.85;38.34;99288.06;8285159;28;20790;-77
2022/09/05 17:37:34;;;;;;;1999.90;999.90;;;;;;;26.47;40.27;99291.69;8232304;28;20133;-77
2022/09/05 17:41:57;;;;;;;1999.90;999.90;;;;;;;26.14;41.29;99303.72;8239405;28;20165;-77
2022/09/05 17:46:14;;;;;;;1999.90;999.90;;;;;;;25.79;42.11;99308.81;8255738;28;20042;-77
2022/09/05 17:50:23;;;;;;;1999.90;999.90;;;;;;;25.44;42.55;99305.81;8254556;28;20066;-77
2022/09/05 17:54:30;;;;;;;1999.90;999.90;;;;;;;25.14;43.35;99321.16;8245427;28;20066;-77
2022/09/05 17:58:33;;;;;;;1999.90;999.90;;;;;;;24.87;43.95;99321.09;8237895;28;20138;-77
2022/09/05 18:02:53;;;;;;;1999.90;999.90;;;;;;;24.59;44.67;99328.16;8242313;28;20313;-78
2022/09/05 18:07:43;;;;;;;1999.90;999.90;;;;;;;24.33;45.16;99319.16;8260383;28;20479;-77
2022/09/05 18:12:10;;;;;;;1999.90;999.90;;;;;;;23.99;45.73;99314.19;8255382;28;20521;-77
2022/09/05 18:16:44;;;;;;;1999.90;999.90;;;;;;;23.78;46.39;99311.03;8250792;28;20050;-77
2022/09/05 18:21:17;;;;;;;1999.90;999.90;;;;;;;23.57;46.96;99307.00;8259423;28;20050;-77
2022/09/05 18:25:28;;;;;;;1999.90;999.90;;;;;;;23.35;47.79;99307.38;8250573;28;20074;-77
2022/09/05 18:29:40;;;;;;;1999.90;999.90;;;;;;;23.13;48.50;99299.81;8252282;28;20053;-76
2022/09/05 18:34:20;;;;;;;1999.90;999.90;;;;;;;22.97;49.09;99306.91;8253851;28;20054;-77
2022/09/05 18:38:32;;;;;;;1999.90;999.90;;;;;;;22.78;49.65;99302.63;8268597;28;20046;-77
2022/09/05 18:42:53;;;;;;;1999.90;999.90;;;;;;;22.63;50.44;99315.88;8267342;28;20046;-76
2022/09/05 18:47:02;;;;;;;1999.90;999.90;;;;;;;22.49;51.21;99317.47;8290008;28;20136;-76
2022/09/05 18:51:04;;;;;;;1999.90;999.90;;;;;;;22.35;51.00;99321.78;8264702;28;20077;-77
2022/09/05 18:55:19;;;;;;;1999.90;999.90;;;;;;;22.22;51.74;99333.00;8235042;28;20042;-77
2022/09/05 18:59:55;;;;;;;1999.90;999.90;;;;;;;22.10;52.93;99324.91;8259388;28;20122;-77
2022/09/05 19:04:02;;;;;;;1999.90;999.90;;;;;;;21.95;52.81;99327.38;8253137;28;20098;-76
2022/09/05 19:08:18;;;;;;;1999.90;999.90;;;;;;;21.73;53.53;99321.47;8254384;28;20069;-76
2022/09/05 19:12:36;;;;;;;1999.90;999.90;;;;;;;21.65;54.52;99313.06;8280797;28;20073;-76
2022/09/05 19:16:49;;;;;;;1999.90;999.90;;;;;;;21.54;54.40;99323.31;8282346;28;20054;-76
2022/09/05 19:21:11;;;;;;;1999.90;999.90;;;;;;;21.39;55.02;99324.97;8280534;28;20065;-76
2022/09/05 19:25:21;;;;;;;1999.90;999.90;;;;;;;21.34;56.02;99327.81;8277266;28;20053;-77
2022/09/05 19:29:32;;;;;;;1999.90;999.90;;;;;;;21.23;57.02;99323.97;8260664;28;20065;-77
2022/09/05 19:34:02;;;;;;;1999.90;999.90;;;;;;;21.13;56.31;99313.84;8264765;28;20049;-76
2022/09/05 19:38:37;;;;;;;1999.90;999.90;;;;;;;21.01;56.70;99317.09;8264871;28;20045;-77